createdAt,value
2018-12-25T00:01:38.394Z,98048.41
2018-12-25T00:04:07.772Z,98044.50
2018-12-25T00:06:37.580Z,98053.19
2018-12-25T00:09:08.473Z,98048.95
2018-12-25T00:11:38.277Z,98034.59
2018-12-25T00:14:07.744Z,98038.00
2018-12-25T00:16:37.290Z,98038.06
2018-12-25T00:19:06.775Z,98030.23
2018-12-25T00:21:36.579Z,98026.86
2018-12-25T00:24:06.015Z,98018.69
2018-12-25T00:26:35.447Z,98028.36
2018-12-25T00:29:05.176Z,98027.59
2018-12-25T00:31:34.911Z,98038.48
2018-12-25T00:34:04.848Z,98039.84
2018-12-25T00:36:34.359Z,98034.16
2018-12-25T00:39:04.851Z,98030.35
2018-12-25T00:41:34.299Z,98020.02
2018-12-25T00:44:04.051Z,98035.64
2018-12-25T00:46:33.892Z,98025.30
2018-12-25T00:49:03.582Z,98029.73
2018-12-25T00:51:33.252Z,98037.59
2018-12-25T00:54:02.983Z,98028.13
2018-12-25T00:56:32.736Z,98034.66
2018-12-25T00:59:02.191Z,98038.56
2018-12-25T01:01:31.706Z,98038.58
2018-12-25T01:04:01.445Z,98038.19
2018-12-25T01:06:31.153Z,98037.73
2018-12-25T01:09:00.678Z,98038.64
2018-12-25T01:11:30.191Z,98045.18
2018-12-25T01:13:59.603Z,98045.20
2018-12-25T01:16:29.150Z,98053.56
2018-12-25T01:18:58.706Z,98047.51
2018-12-25T01:21:28.357Z,98045.41
2018-12-25T01:23:57.751Z,98051.90
2018-12-25T01:26:27.302Z,98055.38
2018-12-25T01:28:57.199Z,98052.30
2018-12-25T01:31:26.961Z,98050.11
2018-12-25T01:33:56.620Z,98044.05
2018-12-25T01:36:26.015Z,98044.84
2018-12-25T01:38:55.622Z,98050.02
2018-12-25T01:41:25.345Z,98050.00
2018-12-25T01:43:54.877Z,98043.06
2018-12-25T01:46:24.305Z,98048.30
2018-12-25T01:48:54.157Z,98039.52
2018-12-25T01:51:23.591Z,98030.38
2018-12-25T01:53:53.102Z,98027.36
2018-12-25T01:56:22.833Z,98022.07
2018-12-25T01:58:52.568Z,98028.67
2018-12-25T02:01:22.046Z,98045.95
2018-12-25T02:03:51.961Z,98044.73
2018-12-25T02:06:21.848Z,98041.30
2018-12-25T02:08:51.282Z,98049.14
2018-12-25T02:11:20.799Z,98060.88
2018-12-25T02:13:50.590Z,98049.13
2018-12-25T02:16:20.296Z,98053.89
2018-12-25T02:18:49.844Z,98052.61
2018-12-25T02:21:19.242Z,98047.89
2018-12-25T02:23:49.077Z,98046.16
2018-12-25T02:26:18.825Z,98043.16
2018-12-25T02:28:48.369Z,98049.25
2018-12-25T02:31:18.110Z,98044.95
2018-12-25T02:33:47.756Z,98040.64
2018-12-25T02:36:17.376Z,98046.70
2018-12-25T02:38:47.183Z,98051.06
2018-12-25T02:41:16.854Z,98067.16
2018-12-25T02:43:46.259Z,98065.84
2018-12-25T02:46:15.899Z,98076.72
2018-12-25T02:48:45.716Z,98063.25
2018-12-25T02:51:15.462Z,98065.84
2018-12-25T02:53:45.014Z,98056.27
2018-12-25T02:56:14.611Z,98064.03
2018-12-25T02:58:44.352Z,98060.17
2018-12-25T03:01:13.812Z,98064.55
2018-12-25T03:03:43.246Z,98059.34
2018-12-25T03:06:12.801Z,98071.00
2018-12-25T03:08:42.692Z,98079.70
2018-12-25T03:11:12.254Z,98084.90
2018-12-25T03:13:42.023Z,98081.45
2018-12-25T03:16:11.778Z,98088.30
2018-12-25T03:18:41.324Z,98089.62
2018-12-25T03:21:10.712Z,98084.02
2018-12-25T03:23:40.311Z,98087.53
2018-12-25T03:26:10.142Z,98099.24
2018-12-25T03:28:39.616Z,98102.29
2018-12-25T03:31:09.054Z,98108.84
2018-12-25T03:33:38.948Z,98112.76
2018-12-25T03:36:08.631Z,98113.20
2018-12-25T03:38:38.026Z,98136.20
2018-12-25T03:41:07.400Z,98126.70
2018-12-25T03:43:36.929Z,98150.94
2018-12-25T03:46:06.794Z,98148.78
2018-12-25T03:48:36.502Z,98161.34
2018-12-25T03:51:06.164Z,98168.76
2018-12-25T03:53:35.579Z,98164.84
2018-12-25T03:56:05.060Z,98159.25
2018-12-25T03:58:34.827Z,98178.73
2018-12-25T04:01:04.611Z,98184.44
2018-12-25T04:03:34.150Z,98190.45
2018-12-25T04:06:03.549Z,98189.22
2018-12-25T04:08:33.067Z,98198.31
2018-12-25T04:11:02.542Z,98206.97
2018-12-25T04:13:32.214Z,98206.98
2018-12-25T04:16:01.652Z,98219.56
2018-12-25T04:18:31.173Z,98212.20
2018-12-25T04:21:00.947Z,98218.30
2018-12-25T04:23:30.592Z,98216.59
2018-12-25T04:26:00.195Z,98225.68
2018-12-25T04:28:29.702Z,98235.67
2018-12-25T04:30:59.423Z,98246.08
2018-12-25T04:33:28.863Z,98236.97
2018-12-25T04:35:58.325Z,98229.20
2018-12-25T04:38:27.800Z,98246.13
2018-12-25T04:40:57.416Z,98247.45
2018-12-25T04:43:26.795Z,98258.73
2018-12-25T04:45:56.342Z,98275.65
2018-12-25T04:48:25.870Z,98268.29
2018-12-25T04:50:55.614Z,98258.80
2018-12-25T04:53:25.089Z,98266.15
2018-12-25T04:55:54.713Z,98261.84
2018-12-25T04:58:24.484Z,98277.86
2018-12-25T05:00:54.247Z,98288.64
2018-12-25T05:03:23.778Z,98299.91
2018-12-25T05:05:53.344Z,98311.56
2018-12-25T05:08:23.092Z,98326.27
2018-12-25T05:10:52.672Z,98319.78
2018-12-25T05:13:22.442Z,98314.59
2018-12-25T05:15:52.215Z,98314.14
2018-12-25T05:18:21.791Z,98314.56
2018-12-25T05:20:51.608Z,98312.42
2018-12-25T05:23:21.174Z,98322.38
2018-12-25T05:25:50.692Z,98331.87
2018-12-25T05:28:20.191Z,98334.92
2018-12-25T05:30:49.725Z,98350.45
2018-12-25T05:33:19.535Z,98352.63
2018-12-25T05:35:49.148Z,98353.92
2018-12-25T05:38:18.799Z,98356.09
2018-12-25T05:40:48.313Z,98356.52
2018-12-25T05:43:18.083Z,98365.59
2018-12-25T05:45:47.706Z,98375.09
2018-12-25T05:48:17.235Z,98378.98
2018-12-25T05:50:47.090Z,98381.16
2018-12-25T05:53:16.630Z,98378.98
2018-12-25T05:55:46.094Z,98376.39
2018-12-25T05:58:15.908Z,98383.75
2018-12-25T06:00:45.489Z,98396.72
2018-12-25T06:03:15.147Z,98398.02
2018-12-25T06:05:44.744Z,98405.80
2018-12-25T06:08:14.273Z,98398.02
2018-12-25T06:10:43.981Z,98388.06
2018-12-25T06:13:13.386Z,98385.05
2018-12-25T06:15:42.891Z,98394.50
2018-12-25T06:18:12.370Z,98410.94
2018-12-25T06:20:41.888Z,98423.91
2018-12-25T06:23:11.300Z,98424.75
2018-12-25T06:25:40.903Z,98432.52
2018-12-25T06:28:10.581Z,98423.91
2018-12-25T06:30:40.017Z,98432.56
2018-12-25T06:33:11.692Z,98433.41
2018-12-25T06:35:41.499Z,98436.41
2018-12-25T06:38:11.045Z,98441.59
2018-12-25T06:40:40.487Z,98445.07
2018-12-25T06:43:10.094Z,98452.42
2018-12-25T06:45:39.597Z,98445.53
2018-12-25T06:48:09.192Z,98465.03
2018-12-25T06:50:38.731Z,98466.33
2018-12-25T06:53:08.544Z,98467.20
2018-12-25T06:55:38.307Z,98473.27
2018-12-25T06:58:07.959Z,98466.79
2018-12-25T07:00:37.487Z,98469.39
2018-12-25T07:03:07.276Z,98465.53
2018-12-25T07:05:36.988Z,98482.86
2018-12-25T07:08:06.414Z,98484.58
2018-12-25T07:10:36.180Z,98492.40
2018-12-25T07:13:05.714Z,98497.17
2018-12-25T07:15:35.190Z,98490.68
2018-12-25T07:18:04.662Z,98494.12
2018-12-25T07:20:34.277Z,98484.58
2018-12-25T07:23:03.914Z,98471.60
2018-12-25T07:25:33.482Z,98488.92
2018-12-25T07:28:03.191Z,98496.71
2018-12-25T07:30:32.941Z,98502.36
2018-12-25T07:33:02.527Z,98504.08
2018-12-25T07:35:31.999Z,98517.09
2018-12-25T07:38:01.815Z,98507.16
2018-12-25T07:40:31.329Z,98495.95
2018-12-25T07:43:00.974Z,98487.30
2018-12-25T07:45:30.592Z,98481.69
2018-12-25T07:48:00.502Z,98486.00
2018-12-25T07:50:29.964Z,98487.32
2018-12-25T07:52:59.446Z,98485.56
2018-12-25T07:55:28.955Z,98493.36
2018-12-25T07:57:58.645Z,98505.93
2018-12-25T08:00:28.494Z,98503.74
2018-12-25T08:02:57.973Z,98502.84
2018-12-25T08:05:27.752Z,98499.40
2018-12-25T08:07:57.294Z,98496.80
2018-12-25T08:10:27.009Z,98485.09
2018-12-25T08:12:56.880Z,98485.55
2018-12-25T08:15:26.675Z,98484.67
2018-12-25T08:17:56.148Z,98492.88
2018-12-25T08:20:25.759Z,98494.60
2018-12-25T08:23:02.594Z,98481.09
2018-12-25T08:25:27.132Z,98478.41
2018-12-25T08:27:56.776Z,98475.80
2018-12-25T08:30:26.531Z,98467.86
2018-12-25T08:32:56.027Z,98454.41
2018-12-25T08:35:25.688Z,98457.44
2018-12-25T08:37:55.381Z,98470.45
2018-12-25T08:40:25.565Z,98468.31
2018-12-25T08:42:55.165Z,98474.38
2018-12-25T08:45:24.780Z,98476.09
2018-12-25T08:47:54.420Z,98472.70
2018-12-25T08:50:24.064Z,98478.23
2018-12-25T08:52:53.593Z,98478.96
2018-12-25T08:55:23.159Z,98472.75
2018-12-25T08:57:54.821Z,98477.52
2018-12-25T09:00:24.263Z,98468.97
2018-12-25T09:02:53.693Z,98468.22
2018-12-25T09:05:23.157Z,98470.95
2018-12-25T09:07:52.660Z,98461.08
2018-12-25T09:10:22.069Z,98459.77
2018-12-25T09:12:51.841Z,98455.33
2018-12-25T09:15:21.365Z,98452.87
2018-12-25T09:17:50.911Z,98463.50
2018-12-25T09:20:20.574Z,98466.59
2018-12-25T09:22:50.088Z,98470.00
2018-12-25T09:25:19.851Z,98472.72
2018-12-25T09:27:49.318Z,98473.53
2018-12-25T09:30:18.977Z,98474.88
2018-12-25T09:32:48.890Z,98480.21
2018-12-25T09:35:18.406Z,98484.52
2018-12-25T09:37:47.788Z,98485.37
2018-12-25T09:40:17.221Z,98478.56
2018-12-25T09:42:46.891Z,98488.88
2018-12-25T09:45:16.457Z,98492.05
2018-12-25T09:47:45.965Z,98494.88
2018-12-25T09:50:15.679Z,98485.36
2018-12-25T09:52:45.361Z,98477.08
2018-12-25T09:55:14.876Z,98476.98
2018-12-25T09:57:44.307Z,98487.03
2018-12-25T10:00:13.709Z,98478.80
2018-12-25T10:02:43.245Z,98481.99
2018-12-25T10:05:12.705Z,98486.42
2018-12-25T10:07:42.346Z,98477.45
2018-12-25T10:10:11.830Z,98471.81
2018-12-25T10:12:41.737Z,98457.56
2018-12-25T10:15:11.452Z,98465.39
2018-12-25T10:17:40.882Z,98459.41
2018-12-25T10:20:10.622Z,98459.45
2018-12-25T10:22:40.366Z,98461.20
2018-12-25T10:25:09.834Z,98453.00
2018-12-25T10:27:39.280Z,98451.27
2018-12-25T10:30:09.331Z,98442.13
2018-12-25T10:32:38.919Z,98442.98
2018-12-25T10:35:08.600Z,98438.59
2018-12-25T10:37:38.075Z,98442.48
2018-12-25T10:40:08.182Z,98447.27
2018-12-25T10:42:37.949Z,98446.48
2018-12-25T10:45:07.742Z,98442.16
2018-12-25T10:47:37.687Z,98443.92
2018-12-25T10:50:08.355Z,98439.16
2018-12-25T10:52:37.891Z,98445.22
2018-12-25T10:55:07.615Z,98447.77
2018-12-25T10:57:37.323Z,98440.81
2018-12-25T11:00:10.866Z,98444.73
2018-12-25T11:02:40.514Z,98449.07
2018-12-25T11:05:10.174Z,98443.02
2018-12-25T11:07:39.942Z,98443.07
2018-12-25T11:10:09.893Z,98439.59
2018-12-25T11:12:40.599Z,98446.06
2018-12-25T11:15:10.332Z,98438.70
2018-12-25T11:17:39.888Z,98440.89
2018-12-25T11:20:11.567Z,98447.87
2018-12-25T11:22:41.032Z,98442.20
2018-12-25T11:25:10.923Z,98437.86
2018-12-25T11:27:40.295Z,98448.28
2018-12-25T11:30:10.086Z,98438.28
2018-12-25T11:32:39.553Z,98441.95
2018-12-25T11:35:09.200Z,98437.95
2018-12-25T11:37:38.724Z,98436.77
2018-12-25T11:40:08.263Z,98432.52
2018-12-25T11:42:37.915Z,98428.12
2018-12-25T11:45:07.401Z,98434.27
2018-12-25T11:47:37.131Z,98438.92
2018-12-25T11:50:06.707Z,98437.20
2018-12-25T11:52:36.976Z,98430.83
2018-12-25T11:55:06.520Z,98432.36
2018-12-25T11:57:36.326Z,98437.05
2018-12-25T12:00:06.917Z,98443.23
2018-12-25T12:02:37.463Z,98442.44
2018-12-25T12:05:07.137Z,98434.68
2018-12-25T12:07:36.660Z,98432.55
2018-12-25T12:10:06.829Z,98431.33
2018-12-25T12:12:36.364Z,98432.72
2018-12-25T12:15:06.450Z,98436.73
2018-12-25T12:17:37.220Z,98439.88
2018-12-25T12:20:07.333Z,98446.00
2018-12-25T12:22:37.362Z,98441.26
2018-12-25T12:25:07.013Z,98438.22
2018-12-25T12:27:37.447Z,98449.95
2018-12-25T12:30:07.293Z,98452.44
2018-12-25T12:32:36.787Z,98453.69
2018-12-25T12:35:06.304Z,98454.09
2018-12-25T12:37:35.826Z,98447.13
2018-12-25T12:40:05.516Z,98449.69
2018-12-25T12:42:34.896Z,98444.09
2018-12-25T12:45:04.360Z,98442.44
2018-12-25T12:47:34.082Z,98454.20
2018-12-25T12:50:03.863Z,98449.00
2018-12-25T12:52:33.496Z,98452.90
2018-12-25T12:55:03.163Z,98446.02
2018-12-25T12:57:33.931Z,98443.88
2018-12-25T13:00:03.635Z,98446.50
2018-12-25T13:02:33.026Z,98449.95
2018-12-25T13:05:02.663Z,98449.99
2018-12-25T13:07:32.434Z,98456.91
2018-12-25T13:10:01.852Z,98460.81
2018-12-25T13:12:31.334Z,98460.38
2018-12-25T13:15:00.850Z,98463.86
2018-12-25T13:17:30.437Z,98462.52
2018-12-25T13:20:00.275Z,98466.45
2018-12-25T13:22:29.921Z,98460.84
2018-12-25T13:24:59.812Z,98472.55
2018-12-25T13:27:29.357Z,98473.42
2018-12-25T13:29:58.794Z,98472.98
2018-12-25T13:32:28.330Z,98479.48
2018-12-25T13:35:00.576Z,98476.03
2018-12-25T13:37:30.348Z,98475.17
2018-12-25T13:40:00.044Z,98479.50
2018-12-25T13:42:29.742Z,98488.15
2018-12-25T13:44:59.496Z,98488.59
2018-12-25T13:47:29.153Z,98492.07
2018-12-25T13:49:58.623Z,98490.75
2018-12-25T13:52:28.084Z,98495.98
2018-12-25T13:54:57.482Z,98494.22
2018-12-25T13:57:27.139Z,98485.57
2018-12-25T13:59:56.609Z,98488.59
2018-12-25T14:02:26.165Z,98490.78
2018-12-25T14:04:55.780Z,98498.98
2018-12-25T14:07:25.547Z,98503.77
2018-12-25T14:09:55.065Z,98497.27
2018-12-25T14:12:24.455Z,98494.67
2018-12-25T14:14:54.329Z,98501.16
2018-12-25T14:17:24.294Z,98502.45
2018-12-25T14:19:55.219Z,98512.39
2018-12-25T14:22:24.962Z,98511.97
2018-12-25T14:24:54.344Z,98509.36
2018-12-25T14:27:24.073Z,98505.44
2018-12-25T14:29:53.491Z,98513.25
2018-12-25T14:32:23.362Z,98514.10
2018-12-25T14:34:52.991Z,98514.53
2018-12-25T14:37:22.414Z,98523.62
2018-12-25T14:39:51.886Z,98517.97
2018-12-25T14:42:21.361Z,98523.62
2018-12-25T14:44:51.075Z,98522.70
2018-12-25T14:47:20.726Z,98527.02
2018-12-25T14:49:50.338Z,98531.33
2018-12-25T14:52:19.812Z,98540.83
2018-12-25T14:54:49.653Z,98551.20
2018-12-25T14:57:19.095Z,98560.25
2018-12-25T14:59:48.822Z,98557.23
2018-12-25T15:02:18.936Z,98558.11
2018-12-25T15:04:48.661Z,98560.65
2018-12-25T15:07:18.296Z,98567.09
2018-12-25T15:09:47.920Z,98568.80
2018-12-25T15:12:17.845Z,98572.68
2018-12-25T15:14:48.497Z,98573.97
2018-12-25T15:17:18.126Z,98570.48
2018-12-25T15:19:47.733Z,98577.39
2018-12-25T15:22:17.657Z,98582.57
2018-12-25T15:24:47.139Z,98581.69
2018-12-25T15:27:16.526Z,98577.30
2018-12-25T15:29:46.412Z,98572.53
2018-12-25T15:32:16.384Z,98575.55
2018-12-25T15:34:46.468Z,98578.52
2018-12-25T15:37:16.189Z,98578.47
2018-12-25T15:39:45.939Z,98578.38
2018-12-25T15:42:15.534Z,98588.73
2018-12-25T15:44:45.110Z,98596.50
2018-12-25T15:47:14.882Z,98605.56
2018-12-25T15:49:44.635Z,98603.45
2018-12-25T15:52:14.282Z,98604.27
2018-12-25T15:54:44.043Z,98606.03
2018-12-25T15:57:14.106Z,98614.64
2018-12-25T15:59:43.636Z,98621.52
2018-12-25T16:02:13.061Z,98621.52
2018-12-25T16:04:42.499Z,98623.19
2018-12-25T16:07:12.410Z,98619.32
2018-12-25T16:09:42.223Z,98620.57
2018-12-25T16:12:11.858Z,98628.30
2018-12-25T16:14:41.536Z,98629.16
2018-12-25T16:17:11.342Z,98632.55
2018-12-25T16:19:41.104Z,98635.52
2018-12-25T16:22:10.578Z,98631.14
2018-12-25T16:24:40.271Z,98638.59
2018-12-25T16:27:10.332Z,98637.60
2018-12-25T16:29:40.089Z,98636.69
2018-12-25T16:32:09.808Z,98643.52
2018-12-25T16:34:40.070Z,98640.97
2018-12-25T16:37:09.781Z,98644.73
2018-12-25T16:46:33.840Z,98649.86
2018-12-25T16:49:15.791Z,98650.77
2018-12-25T16:52:10.166Z,98651.84
2018-12-25T16:54:59.418Z,98668.98
2018-12-25T17:01:45.284Z,98680.89
2018-12-25T17:11:11.892Z,98674.68
2018-12-25T17:14:00.556Z,98683.67
2018-12-25T17:16:30.031Z,98687.33
2018-12-25T17:18:59.723Z,98680.44
2018-12-25T17:21:29.185Z,98680.83
2018-12-25T17:24:02.302Z,98686.49
2018-12-25T17:26:32.155Z,98690.82
2018-12-25T17:29:01.809Z,98699.47
2018-12-25T17:31:32.060Z,98696.10
2018-12-25T17:34:01.783Z,98692.19
2018-12-25T17:36:31.503Z,98689.13
2018-12-25T17:39:04.870Z,98688.73
2018-12-25T17:41:35.094Z,98692.58
2018-12-25T17:44:05.054Z,98701.56
2018-12-25T17:46:34.894Z,98699.52
2018-12-25T17:49:04.566Z,98696.88
2018-12-25T17:51:35.459Z,98697.40
2018-12-25T17:54:10.660Z,98701.20
2018-12-25T17:56:37.869Z,98705.06
2018-12-25T17:59:07.903Z,98703.38
2018-12-25T18:01:37.612Z,98704.17
2018-12-25T18:04:07.261Z,98699.44
2018-12-25T18:06:36.951Z,98698.55
2018-12-25T18:09:07.661Z,98696.23
2018-12-25T18:11:37.144Z,98693.10
2018-12-25T18:14:06.769Z,98694.35
2018-12-25T18:16:36.444Z,98696.09
2018-12-25T18:19:06.251Z,98704.58
2018-12-25T18:21:35.998Z,98710.26
2018-12-25T18:24:05.607Z,98717.14
2018-12-25T18:26:35.381Z,98718.09
2018-12-25T18:29:05.192Z,98716.80
2018-12-25T18:31:34.994Z,98708.62
2018-12-25T18:34:04.876Z,98711.72
2018-12-25T18:36:34.350Z,98717.52
2018-12-25T18:39:05.455Z,98713.67
2018-12-25T18:41:35.043Z,98725.81
2018-12-25T18:44:04.641Z,98723.58
2018-12-25T18:46:34.242Z,98718.41
2018-12-25T18:49:03.812Z,98719.73
2018-12-25T18:51:33.543Z,98714.94
2018-12-25T18:54:03.299Z,98715.77
2018-12-25T18:56:33.035Z,98714.55
2018-12-25T18:59:02.797Z,98712.37
2018-12-25T19:01:32.390Z,98710.97
2018-12-25T19:04:02.081Z,98712.83
2018-12-25T19:06:33.645Z,98708.47
2018-12-25T19:09:03.654Z,98699.39
2018-12-25T19:11:33.425Z,98715.81
2018-12-25T19:14:03.286Z,98712.74
2018-12-25T19:16:33.139Z,98716.03
2018-12-25T19:19:04.448Z,98706.75
2018-12-25T19:21:34.194Z,98706.64
2018-12-25T19:24:03.946Z,98706.64
2018-12-25T19:26:33.678Z,98701.09
2018-12-25T19:29:03.478Z,98712.28
2018-12-25T19:31:33.224Z,98717.36
2018-12-25T19:34:02.778Z,98718.95
2018-12-25T19:36:32.645Z,98728.63
2018-12-25T19:39:02.702Z,98725.08
2018-12-25T19:41:32.154Z,98723.33
2018-12-25T19:44:01.865Z,98724.16
2018-12-25T19:46:31.371Z,98730.59
2018-12-25T19:49:00.880Z,98732.64
2018-12-25T19:51:30.678Z,98741.26
2018-12-25T19:54:01.729Z,98741.71
2018-12-25T19:56:31.421Z,98747.78
2018-12-25T19:59:02.124Z,98751.34
2018-12-25T20:01:31.613Z,98748.70
2018-12-25T20:04:27.899Z,98747.41
2018-12-25T20:07:59.393Z,98753.48
2018-12-25T20:11:01.509Z,98761.75
2018-12-25T20:13:54.306Z,98766.84
2018-12-25T20:17:04.095Z,98765.28
2018-12-25T20:20:23.503Z,98765.19
2018-12-25T20:23:29.143Z,98766.98
2018-12-25T20:26:35.909Z,98765.67
2018-12-25T20:29:27.441Z,98771.60
2018-12-25T20:32:10.477Z,98779.24
2018-12-25T20:35:22.716Z,98784.83
2018-12-25T20:38:57.113Z,98781.75
2018-12-25T20:42:22.346Z,98783.41
2018-12-25T20:45:29.810Z,98781.13
2018-12-25T20:48:43.266Z,98785.89
2018-12-25T20:51:43.892Z,98779.87
2018-12-25T20:54:40.432Z,98776.44
2018-12-25T20:58:01.412Z,98776.33
2018-12-25T21:01:18.042Z,98773.85
2018-12-25T21:04:28.244Z,98778.09
2018-12-25T21:07:33.147Z,98778.55
2018-12-25T21:10:52.326Z,98784.33
2018-12-25T21:14:01.462Z,98788.28
2018-12-25T21:17:17.956Z,98788.16
2018-12-25T21:20:37.268Z,98788.45
2018-12-25T21:23:43.511Z,98791.08
2018-12-25T21:26:48.235Z,98799.22
2018-12-25T21:29:17.977Z,98789.11
2018-12-25T21:31:47.780Z,98795.86
2018-12-25T21:34:17.518Z,98788.63
2018-12-25T21:36:50.665Z,98784.19
2018-12-25T21:39:20.695Z,98770.37
2018-12-25T21:41:50.079Z,98766.92
2018-12-25T21:44:19.778Z,98765.76
2018-12-25T21:46:49.535Z,98758.94
2018-12-25T21:49:19.881Z,98768.34
2018-12-25T21:51:49.404Z,98775.98
2018-12-25T21:54:19.569Z,98777.78
2018-12-25T21:56:49.428Z,98776.55
2018-12-25T21:59:20.082Z,98774.41
2018-12-25T22:01:50.376Z,98775.73
2018-12-25T22:04:19.922Z,98775.23
2018-12-25T22:06:49.581Z,98774.46
2018-12-25T22:09:19.400Z,98782.06
2018-12-25T22:11:48.936Z,98784.55
2018-12-25T22:14:18.568Z,98785.48
2018-12-25T22:16:48.229Z,98779.50
2018-12-25T22:19:17.663Z,98788.89
2018-12-25T22:21:47.143Z,98792.02
2018-12-25T22:24:16.608Z,98795.01
2018-12-25T22:26:46.186Z,98791.98
2018-12-25T22:29:15.955Z,98790.20
2018-12-25T22:31:45.434Z,98794.08
2018-12-25T22:34:14.947Z,98797.05
2018-12-25T22:36:44.407Z,98800.91
2018-12-25T22:39:14.053Z,98803.13
2018-12-25T22:41:43.796Z,98806.59
2018-12-25T22:44:13.547Z,98802.53
2018-12-25T22:46:43.191Z,98807.55
2018-12-25T22:49:12.747Z,98816.19
2018-12-25T22:51:42.348Z,98813.15
2018-12-25T22:54:13.631Z,98815.34
2018-12-25T22:56:43.087Z,98818.89
2018-12-25T22:59:12.562Z,98817.13
2018-12-25T23:01:42.314Z,98821.67
2018-12-25T23:04:12.036Z,98816.06
2018-12-25T23:06:41.796Z,98813.79
2018-12-25T23:09:11.445Z,98826.59
2018-12-25T23:11:40.855Z,98827.77
2018-12-25T23:14:10.492Z,98836.45
2018-12-25T23:16:40.226Z,98832.45
2018-12-25T23:19:09.699Z,98835.05
2018-12-25T23:21:39.090Z,98835.30
2018-12-25T23:24:08.648Z,98841.38
2018-12-25T23:26:38.128Z,98844.91
2018-12-25T23:29:07.874Z,98841.95
2018-12-25T23:31:37.514Z,98837.52
2018-12-25T23:34:07.082Z,98840.03
2018-12-25T23:36:36.611Z,98848.66
2018-12-25T23:39:08.074Z,98847.39
2018-12-25T23:41:39.815Z,98849.50
2018-12-25T23:44:09.623Z,98845.16
2018-12-25T23:46:39.120Z,98850.10
2018-12-25T23:49:08.955Z,98846.64
2018-12-25T23:51:38.591Z,98859.52
2018-12-25T23:54:08.302Z,98851.48
2018-12-25T23:56:37.862Z,98850.63
2018-12-25T23:59:07.563Z,98853.59
